sensor_id;sensor_type;location;lat;lon;timestamp;pressure;altitude;pressure_sealevel;temperature;humidity
72689;BME280;61053;52.166;4.506;2022-08-25T00:01:48;101781.69;;;23.48;75.98
72689;BME280;61053;52.166;4.506;2022-08-25T00:04:18;101775.22;;;23.57;75.77
72689;BME280;61053;52.166;4.506;2022-08-25T00:06:45;101781.19;;;23.60;75.63
72689;BME280;61053;52.166;4.506;2022-08-25T00:09:15;101777.75;;;23.50;76.05
72689;BME280;61053;52.166;4.506;2022-08-25T00:11:44;101778.97;;;23.56;76.02
72689;BME280;61053;52.166;4.506;2022-08-25T00:14:15;101767.72;;;23.59;75.51
72689;BME280;61053;52.166;4.506;2022-08-25T00:16:48;101774.19;;;23.50;75.92
72689;BME280;61053;52.166;4.506;2022-08-25T00:19:18;101774.03;;;23.51;75.75
72689;BME280;61053;52.166;4.506;2022-08-25T00:21:47;101759.69;;;23.57;75.65
72689;BME280;61053;52.166;4.506;2022-08-25T00:24:15;101768.25;;;23.46;75.97
72689;BME280;61053;52.166;4.506;2022-08-25T00:26:45;101765.00;;;23.43;76.13
72689;BME280;61053;52.166;4.506;2022-08-25T00:29:13;101769.25;;;23.37;75.90
72689;BME280;61053;52.166;4.506;2022-08-25T00:31:41;101764.50;;;23.39;75.88
72689;BME280;61053;52.166;4.506;2022-08-25T00:34:10;101760.56;;;23.42;75.64
72689;BME280;61053;52.166;4.506;2022-08-25T00:36:40;101758.50;;;23.35;75.89
72689;BME280;61053;52.166;4.506;2022-08-25T00:39:07;101758.00;;;23.40;75.95
72689;BME280;61053;52.166;4.506;2022-08-25T00:41:35;101756.31;;;23.39;75.78
72689;BME280;61053;52.166;4.506;2022-08-25T00:44:04;101758.53;;;23.27;75.97
72689;BME280;61053;52.166;4.506;2022-08-25T00:46:42;101748.63;;;23.26;75.88
72689;BME280;61053;52.166;4.506;2022-08-25T00:49:13;101755.81;;;23.27;75.87
72689;BME280;61053;52.166;4.506;2022-08-25T00:51:49;101753.56;;;23.31;75.71
72689;BME280;61053;52.166;4.506;2022-08-25T00:54:22;101753.56;;;23.14;76.23
72689;BME280;61053;52.166;4.506;2022-08-25T00:56:57;101749.97;;;23.22;76.03
72689;BME280;61053;52.166;4.506;2022-08-25T00:59:25;101752.91;;;23.21;76.11
72689;BME280;61053;52.166;4.506;2022-08-25T01:01:52;101740.28;;;23.20;76.01
72689;BME280;61053;52.166;4.506;2022-08-25T01:04:18;101742.00;;;23.21;75.90
72689;BME280;61053;52.166;4.506;2022-08-25T01:06:46;101743.16;;;23.10;76.25
72689;BME280;61053;52.166;4.506;2022-08-25T01:09:17;101741.63;;;23.07;75.82
72689;BME280;61053;52.166;4.506;2022-08-25T01:11:44;101740.44;;;23.10;75.96
72689;BME280;61053;52.166;4.506;2022-08-25T01:14:14;101735.66;;;23.20;75.66
72689;BME280;61053;52.166;4.506;2022-08-25T01:16:43;101740.28;;;23.20;75.51
72689;BME280;61053;52.166;4.506;2022-08-25T01:19:11;101733.78;;;23.12;75.83
72689;BME280;61053;52.166;4.506;2022-08-25T01:21:47;101724.09;;;23.18;75.47
72689;BME280;61053;52.166;4.506;2022-08-25T01:27:15;101719.66;;;23.01;75.83
72689;BME280;61053;52.166;4.506;2022-08-25T01:29:41;101722.88;;;23.12;75.51
72689;BME280;61053;52.166;4.506;2022-08-25T01:32:10;101714.88;;;23.03;75.76
72689;BME280;61053;52.166;4.506;2022-08-25T01:34:39;101717.06;;;22.91;76.07
72689;BME280;61053;52.166;4.506;2022-08-25T01:37:10;101715.53;;;22.88;76.01
72689;BME280;61053;52.166;4.506;2022-08-25T01:39:40;101717.91;;;22.83;76.00
72689;BME280;61053;52.166;4.506;2022-08-25T01:42:16;101731.34;;;22.85;76.16
72689;BME280;61053;52.166;4.506;2022-08-25T01:44:58;101712.78;;;22.88;75.75
72689;BME280;61053;52.166;4.506;2022-08-25T01:47:24;101717.91;;;22.83;76.19
72689;BME280;61053;52.166;4.506;2022-08-25T01:49:49;101708.50;;;22.77;76.32
72689;BME280;61053;52.166;4.506;2022-08-25T01:52:20;101715.81;;;22.69;76.51
72689;BME280;61053;52.166;4.506;2022-08-25T01:54:49;101708.16;;;22.64;76.89
72689;BME280;61053;52.166;4.506;2022-08-25T01:57:15;101711.38;;;22.68;76.64
72689;BME280;61053;52.166;4.506;2022-08-25T01:59:41;101709.16;;;22.63;76.83
72689;BME280;61053;52.166;4.506;2022-08-25T02:02:06;101700.66;;;22.66;76.71
72689;BME280;61053;52.166;4.506;2022-08-25T02:04:32;101703.22;;;22.68;76.81
72689;BME280;61053;52.166;4.506;2022-08-25T02:07:00;101705.75;;;22.61;76.97
72689;BME280;61053;52.166;4.506;2022-08-25T02:09:27;101702.69;;;22.56;77.16
72689;BME280;61053;52.166;4.506;2022-08-25T02:11:53;101712.72;;;22.55;77.25
72689;BME280;61053;52.166;4.506;2022-08-25T02:14:18;101704.41;;;22.57;77.19
72689;BME280;61053;52.166;4.506;2022-08-25T02:16:47;101693.66;;;22.64;76.86
72689;BME280;61053;52.166;4.506;2022-08-25T02:19:16;101693.00;;;22.62;76.88
72689;BME280;61053;52.166;4.506;2022-08-25T02:21:45;101696.56;;;22.62;76.98
72689;BME280;61053;52.166;4.506;2022-08-25T02:24:11;101693.81;;;22.54;77.39
72689;BME280;61053;52.166;4.506;2022-08-25T02:26:38;101698.44;;;22.62;77.15
72689;BME280;61053;52.166;4.506;2022-08-25T02:29:05;101693.66;;;22.55;77.44
72689;BME280;61053;52.166;4.506;2022-08-25T02:31:32;101685.00;;;22.60;77.39
72689;BME280;61053;52.166;4.506;2022-08-25T02:33:58;101696.53;;;22.46;77.61
72689;BME280;61053;52.166;4.506;2022-08-25T02:36:26;101698.06;;;22.57;77.48
72689;BME280;61053;52.166;4.506;2022-08-25T02:38:51;101701.84;;;22.55;77.36
72689;BME280;61053;52.166;4.506;2022-08-25T02:41:20;101696.38;;;22.55;77.34
72689;BME280;61053;52.166;4.506;2022-08-25T02:43:48;101684.41;;;22.40;77.83
72689;BME280;61053;52.166;4.506;2022-08-25T02:46:17;101687.66;;;22.44;77.73
72689;BME280;61053;52.166;4.506;2022-08-25T02:48:44;101683.75;;;22.46;77.53
72689;BME280;61053;52.166;4.506;2022-08-25T02:51:10;101684.78;;;22.45;77.62
72689;BME280;61053;52.166;4.506;2022-08-25T02:53:41;101685.25;;;22.32;77.85
72689;BME280;61053;52.166;4.506;2022-08-25T02:56:11;101674.00;;;22.27;78.25
72689;BME280;61053;52.166;4.506;2022-08-25T02:58:41;101672.19;;;22.36;77.86
72689;BME280;61053;52.166;4.506;2022-08-25T03:01:07;101669.75;;;22.33;77.98
72689;BME280;61053;52.166;4.506;2022-08-25T03:03:39;101668.75;;;22.34;77.82
72689;BME280;61053;52.166;4.506;2022-08-25T03:06:07;101667.22;;;22.31;77.84
72689;BME280;61053;52.166;4.506;2022-08-25T03:08:35;101667.09;;;22.41;77.26
72689;BME280;61053;52.166;4.506;2022-08-25T03:11:03;101665.31;;;22.24;77.99
72689;BME280;61053;52.166;4.506;2022-08-25T03:13:30;101653.78;;;22.30;77.85
72689;BME280;61053;52.166;4.506;2022-08-25T03:15:57;101653.72;;;22.22;77.94
72689;BME280;61053;52.166;4.506;2022-08-25T03:18:24;101653.03;;;22.20;77.82
72689;BME280;61053;52.166;4.506;2022-08-25T03:20:50;101660.25;;;22.37;77.06
72689;BME280;61053;52.166;4.506;2022-08-25T03:23:15;101658.31;;;22.21;77.52
72689;BME280;61053;52.166;4.506;2022-08-25T03:25:42;101652.03;;;22.21;77.47
72689;BME280;61053;52.166;4.506;2022-08-25T03:28:27;101652.66;;;22.14;77.57
72689;BME280;61053;52.166;4.506;2022-08-25T03:30:57;101646.38;;;22.14;77.28
72689;BME280;61053;52.166;4.506;2022-08-25T03:33:28;101639.88;;;22.07;77.32
72689;BME280;61053;52.166;4.506;2022-08-25T03:35:55;101634.31;;;22.17;76.72
72689;BME280;61053;52.166;4.506;2022-08-25T03:38:24;101626.13;;;22.17;76.48
72689;BME280;61053;52.166;4.506;2022-08-25T03:40:51;101631.38;;;22.10;76.33
72689;BME280;61053;52.166;4.506;2022-08-25T03:43:18;101624.06;;;22.02;76.34
72689;BME280;61053;52.166;4.506;2022-08-25T03:45:48;101622.56;;;22.08;76.01
72689;BME280;61053;52.166;4.506;2022-08-25T03:48:14;101631.22;;;22.11;75.60
72689;BME280;61053;52.166;4.506;2022-08-25T03:50:50;101616.19;;;21.91;76.18
72689;BME280;61053;52.166;4.506;2022-08-25T03:53:19;101600.06;;;21.98;75.76
72689;BME280;61053;52.166;4.506;2022-08-25T03:55:44;101606.69;;;21.95;75.60
72689;BME280;61053;52.166;4.506;2022-08-25T03:58:10;101598.38;;;21.97;75.12
72689;BME280;61053;52.166;4.506;2022-08-25T04:00:38;101604.66;;;21.97;74.76
72689;BME280;61053;52.166;4.506;2022-08-25T04:03:04;101608.56;;;21.95;75.12
72689;BME280;61053;52.166;4.506;2022-08-25T04:05:30;101602.56;;;21.83;75.41
72689;BME280;61053;52.166;4.506;2022-08-25T04:07:55;101608.19;;;21.89;74.65
72689;BME280;61053;52.166;4.506;2022-08-25T04:10:22;101602.56;;;21.91;74.39
72689;BME280;61053;52.166;4.506;2022-08-25T04:12:48;101596.63;;;21.87;74.46
72689;BME280;61053;52.166;4.506;2022-08-25T04:15:13;101594.19;;;21.76;74.65
72689;BME280;61053;52.166;4.506;2022-08-25T04:17:40;101594.06;;;21.78;74.68
72689;BME280;61053;52.166;4.506;2022-08-25T04:20:07;101594.41;;;21.83;74.04
72689;BME280;61053;52.166;4.506;2022-08-25T04:22:36;101597.97;;;21.83;74.07
72689;BME280;61053;52.166;4.506;2022-08-25T04:25:05;101591.28;;;21.69;74.34
72689;BME280;61053;52.166;4.506;2022-08-25T04:27:35;101585.16;;;21.67;74.13
72689;BME280;61053;52.166;4.506;2022-08-25T04:30:01;101594.69;;;21.71;73.83
72689;BME280;61053;52.166;4.506;2022-08-25T04:32:28;101586.50;;;21.63;74.16
72689;BME280;61053;52.166;4.506;2022-08-25T04:34:56;101577.97;;;21.58;74.02
72689;BME280;61053;52.166;4.506;2022-08-25T04:37:22;101585.63;;;21.63;73.47
72689;BME280;61053;52.166;4.506;2022-08-25T04:39:47;101591.59;;;21.66;73.01
72689;BME280;61053;52.166;4.506;2022-08-25T04:42:14;101597.53;;;21.62;72.98
72689;BME280;61053;52.166;4.506;2022-08-25T04:44:39;101596.34;;;21.64;72.48
72689;BME280;61053;52.166;4.506;2022-08-25T04:47:05;101596.28;;;21.48;73.26
72689;BME280;61053;52.166;4.506;2022-08-25T04:49:31;101594.94;;;21.52;72.88
72689;BME280;61053;52.166;4.506;2022-08-25T04:51:56;101594.13;;;21.60;72.35
72689;BME280;61053;52.166;4.506;2022-08-25T04:54:23;101601.59;;;21.58;72.62
72689;BME280;61053;52.166;4.506;2022-08-25T04:56:50;101596.34;;;21.64;72.20
72689;BME280;61053;52.166;4.506;2022-08-25T04:59:17;101602.22;;;21.52;72.33
72689;BME280;61053;52.166;4.506;2022-08-25T05:01:44;101592.25;;;21.60;71.81
72689;BME280;61053;52.166;4.506;2022-08-25T05:04:20;101596.50;;;21.63;71.69
72689;BME280;61053;52.166;4.506;2022-08-25T05:06:47;101594.34;;;21.66;71.38
72689;BME280;61053;52.166;4.506;2022-08-25T05:09:12;101589.22;;;21.63;71.47
72689;BME280;61053;52.166;4.506;2022-08-25T05:11:41;101595.16;;;21.59;71.57
72689;BME280;61053;52.166;4.506;2022-08-25T05:14:06;101595.44;;;21.56;71.85
72689;BME280;61053;52.166;4.506;2022-08-25T05:16:36;101610.59;;;21.58;71.54
72689;BME280;61053;52.166;4.506;2022-08-25T05:19:02;101598.53;;;21.61;71.68
72689;BME280;61053;52.166;4.506;2022-08-25T05:21:29;101600.47;;;21.68;71.65
72689;BME280;61053;52.166;4.506;2022-08-25T05:23:56;101611.34;;;21.77;71.12
72689;BME280;61053;52.166;4.506;2022-08-25T05:26:24;101602.63;;;21.65;71.12
72689;BME280;61053;52.166;4.506;2022-08-25T05:28:53;101612.03;;;21.70;70.77
72689;BME280;61053;52.166;4.506;2022-08-25T05:31:20;101607.75;;;21.68;70.83
72689;BME280;61053;52.166;4.506;2022-08-25T05:33:47;101608.41;;;21.62;70.84
72689;BME280;61053;52.166;4.506;2022-08-25T05:36:17;101600.75;;;21.65;70.68
72689;BME280;61053;52.166;4.506;2022-08-25T05:38:45;101611.34;;;21.77;70.05
72689;BME280;61053;52.166;4.506;2022-08-25T05:41:18;101607.66;;;21.78;69.68
72689;BME280;61053;52.166;4.506;2022-08-25T05:43:55;101604.25;;;21.84;69.48
72689;BME280;61053;52.166;4.506;2022-08-25T05:46:25;101603.41;;;21.83;69.16
72689;BME280;61053;52.166;4.506;2022-08-25T05:48:50;101609.19;;;21.88;68.99
72689;BME280;61053;52.166;4.506;2022-08-25T05:51:19;101608.91;;;21.91;68.61
72689;BME280;61053;52.166;4.506;2022-08-25T05:53:47;101607.94;;;22.09;67.59
72689;BME280;61053;52.166;4.506;2022-08-25T05:56:15;101600.00;;;22.24;66.92
72689;BME280;61053;52.166;4.506;2022-08-25T05:58:42;101610.03;;;22.23;65.84
72689;BME280;61053;52.166;4.506;2022-08-25T06:01:30;101599.00;;;22.33;64.41
72689;BME280;61053;52.166;4.506;2022-08-25T06:04:17;101602.50;;;22.17;64.18
72689;BME280;61053;52.166;4.506;2022-08-25T06:06:44;101603.59;;;22.32;63.72
72689;BME280;61053;52.166;4.506;2022-08-25T06:09:11;101600.38;;;22.37;63.44
72689;BME280;61053;52.166;4.506;2022-08-25T06:11:38;101606.13;;;22.26;63.47
72689;BME280;61053;52.166;4.506;2022-08-25T06:14:09;101599.69;;;22.27;63.25
72689;BME280;61053;52.166;4.506;2022-08-25T06:16:36;101596.00;;;22.02;64.16
72689;BME280;61053;52.166;4.506;2022-08-25T06:19:07;101599.91;;;22.07;63.84
72689;BME280;61053;52.166;4.506;2022-08-25T06:21:35;101594.66;;;22.14;63.67
72689;BME280;61053;52.166;4.506;2022-08-25T06:24:03;101597.75;;;22.19;63.03
72689;BME280;61053;52.166;4.506;2022-08-25T06:26:29;101587.69;;;22.11;63.59
72689;BME280;61053;52.166;4.506;2022-08-25T06:28:55;101582.59;;;22.17;63.29
72689;BME280;61053;52.166;4.506;2022-08-25T06:31:22;101583.50;;;22.25;63.15
72689;BME280;61053;52.166;4.506;2022-08-25T06:33:48;101587.56;;;22.21;62.95
72689;BME280;61053;52.166;4.506;2022-08-25T06:36:18;101590.75;;;22.17;63.09
72689;BME280;61053;52.166;4.506;2022-08-25T06:38:45;101592.03;;;22.30;62.94
72689;BME280;61053;52.166;4.506;2022-08-25T06:41:11;101589.81;;;22.26;62.70
72689;BME280;61053;52.166;4.506;2022-08-25T06:43:39;101592.56;;;22.34;62.51
72689;BME280;61053;52.166;4.506;2022-08-25T06:46:28;101596.59;;;22.22;63.03
72689;BME280;61053;52.166;4.506;2022-08-25T06:48:54;101598.50;;;22.29;62.45
72689;BME280;61053;52.166;4.506;2022-08-25T06:51:25;101602.19;;;22.20;62.45
72689;BME280;61053;52.166;4.506;2022-08-25T06:53:52;101597.84;;;22.44;62.00
72689;BME280;61053;52.166;4.506;2022-08-25T06:56:19;101593.41;;;22.34;62.57
72689;BME280;61053;52.166;4.506;2022-08-25T06:58:46;101590.38;;;22.62;61.30
72689;BME280;61053;52.166;4.506;2022-08-25T07:01:21;101593.06;;;22.54;61.58
72689;BME280;61053;52.166;4.506;2022-08-25T07:03:52;101585.63;;;22.64;61.83
72689;BME280;61053;52.166;4.506;2022-08-25T07:06:21;101583.22;;;22.77;61.15
72689;BME280;61053;52.166;4.506;2022-08-25T07:08:48;101579.81;;;22.84;61.35
72689;BME280;61053;52.166;4.506;2022-08-25T07:11:15;101591.41;;;22.86;61.28
72689;BME280;61053;52.166;4.506;2022-08-25T07:13:42;101588.00;;;23.16;60.03
72689;BME280;61053;52.166;4.506;2022-08-25T07:16:07;101583.56;;;23.15;60.20
72689;BME280;61053;52.166;4.506;2022-08-25T07:18:36;101585.25;;;23.25;59.59
72689;BME280;61053;52.166;4.506;2022-08-25T07:21:03;101581.00;;;23.22;59.25
72689;BME280;61053;52.166;4.506;2022-08-25T07:23:29;101576.78;;;23.67;58.14
72689;BME280;61053;52.166;4.506;2022-08-25T07:25:55;101577.94;;;23.81;57.74
72689;BME280;61053;52.166;4.506;2022-08-25T07:28:32;101584.47;;;23.64;58.33
72689;BME280;61053;52.166;4.506;2022-08-25T07:30:57;101582.72;;;23.71;58.55
72689;BME280;61053;52.166;4.506;2022-08-25T07:33:25;101576.38;;;23.87;58.04
72689;BME280;61053;52.166;4.506;2022-08-25T07:35:50;101577.59;;;24.15;56.44
72689;BME280;61053;52.166;4.506;2022-08-25T07:38:16;101576.69;;;23.92;57.52
72689;BME280;61053;52.166;4.506;2022-08-25T07:40:42;101575.59;;;24.09;57.50
72689;BME280;61053;52.166;4.506;2022-08-25T07:43:10;101583.44;;;24.04;57.72
72689;BME280;61053;52.166;4.506;2022-08-25T07:45:37;101584.66;;;24.33;56.22
72689;BME280;61053;52.166;4.506;2022-08-25T07:48:09;101577.88;;;24.29;55.68
72689;BME280;61053;52.166;4.506;2022-08-25T07:50:40;101576.66;;;24.31;55.51
72689;BME280;61053;52.166;4.506;2022-08-25T07:53:11;101576.69;;;24.23;55.82
72689;BME280;61053;52.166;4.506;2022-08-25T07:55:39;101579.00;;;24.34;54.96
72689;BME280;61053;52.166;4.506;2022-08-25T07:58:06;101577.97;;;24.67;54.39
72689;BME280;61053;52.166;4.506;2022-08-25T08:00:35;101578.22;;;24.57;54.31
72689;BME280;61053;52.166;4.506;2022-08-25T08:03:06;101583.72;;;24.72;53.48
72689;BME280;61053;52.166;4.506;2022-08-25T08:05:34;101584.34;;;24.97;51.92
72689;BME280;61053;52.166;4.506;2022-08-25T08:08:01;101586.81;;;24.92;51.33
72689;BME280;61053;52.166;4.506;2022-08-25T08:10:28;101579.84;;;24.66;52.35
72689;BME280;61053;52.166;4.506;2022-08-25T08:12:56;101582.91;;;24.86;51.69
72689;BME280;61053;52.166;4.506;2022-08-25T08:15:22;101582.75;;;25.40;50.67
72689;BME280;61053;52.166;4.506;2022-08-25T08:17:48;101579.25;;;25.76;49.69
72689;BME280;61053;52.166;4.506;2022-08-25T08:20:14;101592.38;;;25.96;49.38
72689;BME280;61053;52.166;4.506;2022-08-25T08:22:41;101584.28;;;25.87;49.70
72689;BME280;61053;52.166;4.506;2022-08-25T08:25:09;101586.84;;;26.10;48.99
72689;BME280;61053;52.166;4.506;2022-08-25T08:27:36;101575.88;;;26.25;49.05
72689;BME280;61053;52.166;4.506;2022-08-25T08:30:04;101575.47;;;26.28;48.95
72689;BME280;61053;52.166;4.506;2022-08-25T08:32:31;101584.19;;;26.17;48.56
72689;BME280;61053;52.166;4.506;2022-08-25T08:34:59;101585.63;;;26.13;48.38
72689;BME280;61053;52.166;4.506;2022-08-25T08:37:24;101574.63;;;26.49;47.81
72689;BME280;61053;52.166;4.506;2022-08-25T08:39:53;101584.66;;;26.21;47.68
72689;BME280;61053;52.166;4.506;2022-08-25T08:42:44;101576.88;;;26.61;47.54
72689;BME280;61053;52.166;4.506;2022-08-25T08:45:34;101579.53;;;26.76;47.18
72689;BME280;61053;52.166;4.506;2022-08-25T08:56:24;101583.16;;;27.67;44.43
72689;BME280;61053;52.166;4.506;2022-08-25T08:58:54;101574.31;;;27.72;44.39
72689;BME280;61053;52.166;4.506;2022-08-25T09:01:42;101573.69;;;27.70;44.32
72689;BME280;61053;52.166;4.506;2022-08-25T09:04:18;101574.09;;;27.32;44.16
72689;BME280;61053;52.166;4.506;2022-08-25T09:06:49;101573.72;;;27.42;44.29
72689;BME280;61053;52.166;4.506;2022-08-25T09:09:28;101565.75;;;27.88;42.98
72689;BME280;61053;52.166;4.506;2022-08-25T09:12:14;101564.22;;;28.34;41.67
72689;BME280;61053;52.166;4.506;2022-08-25T09:14:56;101559.19;;;28.77;40.66
72689;BME280;61053;52.166;4.506;2022-08-25T09:29:09;101561.69;;;29.45;40.72
72689;BME280;61053;52.166;4.506;2022-08-25T09:31:40;101564.59;;;29.71;39.01
72689;BME280;61053;52.166;4.506;2022-08-25T09:34:18;101562.66;;;29.78;38.00
72689;BME280;61053;52.166;4.506;2022-08-25T09:36:47;101553.59;;;29.71;39.12
72689;BME280;61053;52.166;4.506;2022-08-25T09:39:17;101556.34;;;29.71;38.91
72689;BME280;61053;52.166;4.506;2022-08-25T09:41:52;101554.41;;;29.71;37.93
72689;BME280;61053;52.166;4.506;2022-08-25T09:44:32;101551.59;;;29.91;38.36
72689;BME280;61053;52.166;4.506;2022-08-25T09:47:06;101553.19;;;30.12;37.58
72689;BME280;61053;52.166;4.506;2022-08-25T09:49:46;101545.72;;;30.19;37.33
72689;BME280;61053;52.166;4.506;2022-08-25T09:52:29;101543.06;;;30.38;37.01
72689;BME280;61053;52.166;4.506;2022-08-25T09:55:23;101541.16;;;30.38;36.12
72689;BME280;61053;52.166;4.506;2022-08-25T09:57:53;101543.34;;;30.29;35.53
72689;BME280;61053;52.166;4.506;2022-08-25T10:00:28;101539.16;;;30.52;35.82
72689;BME280;61053;52.166;4.506;2022-08-25T10:08:20;101543.94;;;30.63;34.42
72689;BME280;61053;52.166;4.506;2022-08-25T10:10:57;101536.44;;;30.45;34.49
72689;BME280;61053;52.166;4.506;2022-08-25T10:13:35;101537.47;;;30.76;34.15
72689;BME280;61053;52.166;4.506;2022-08-25T10:16:28;101525.94;;;30.61;33.39
72689;BME280;61053;52.166;4.506;2022-08-25T10:19:11;101529.50;;;30.93;34.29
72689;BME280;61053;52.166;4.506;2022-08-25T10:21:40;101528.47;;;31.12;32.75
72689;BME280;61053;52.166;4.506;2022-08-25T10:24:18;101520.16;;;31.86;31.89
72689;BME280;61053;52.166;4.506;2022-08-25T10:26:56;101518.34;;;31.80;30.63
72689;BME280;61053;52.166;4.506;2022-08-25T10:34:58;101523.28;;;32.08;31.08
72689;BME280;61053;52.166;4.506;2022-08-25T10:37:59;101520.91;;;32.77;30.29
72689;BME280;61053;52.166;4.506;2022-08-25T10:41:18;101521.50;;;33.91;28.57
72689;BME280;61053;52.166;4.506;2022-08-25T10:44:14;101507.06;;;33.01;29.68
72689;BME280;61053;52.166;4.506;2022-08-25T10:50:33;101502.59;;;34.33;27.46
72689;BME280;61053;52.166;4.506;2022-08-25T10:53:39;101503.56;;;37.44;23.42
72689;BME280;61053;52.166;4.506;2022-08-25T10:56:22;101494.59;;;38.51;22.09
72689;BME280;61053;52.166;4.506;2022-08-25T10:59:15;101499.19;;;37.11;23.30
72689;BME280;61053;52.166;4.506;2022-08-25T11:05:09;101486.47;;;38.24;22.18
72689;BME280;61053;52.166;4.506;2022-08-25T11:07:49;101487.84;;;40.47;21.12
72689;BME280;61053;52.166;4.506;2022-08-25T11:10:25;101484.69;;;43.06;18.26
72689;BME280;61053;52.166;4.506;2022-08-25T11:12:58;101478.00;;;43.93;16.85
72689;BME280;61053;52.166;4.506;2022-08-25T11:15:35;101485.66;;;43.79;16.26
72689;BME280;61053;52.166;4.506;2022-08-25T11:18:12;101487.56;;;41.88;17.87
72689;BME280;61053;52.166;4.506;2022-08-25T11:20:58;101490.75;;;41.20;18.53
72689;BME280;61053;52.166;4.506;2022-08-25T11:23:38;101476.94;;;39.67;19.64
72689;BME280;61053;52.166;4.506;2022-08-25T11:26:11;101477.53;;;38.27;21.85
72689;BME280;61053;52.166;4.506;2022-08-25T11:29:03;101488.03;;;37.69;22.77
72689;BME280;61053;52.166;4.506;2022-08-25T11:31:47;101483.06;;;39.64;20.55
72689;BME280;61053;52.166;4.506;2022-08-25T11:34:15;101480.56;;;37.79;21.92
72689;BME280;61053;52.166;4.506;2022-08-25T11:36:51;101482.56;;;37.26;22.77
72689;BME280;61053;52.166;4.506;2022-08-25T11:39:42;101483.09;;;36.75;23.25
72689;BME280;61053;52.166;4.506;2022-08-25T11:48:50;101474.75;;;40.72;19.49
72689;BME280;61053;52.166;4.506;2022-08-25T11:51:43;101475.56;;;42.53;17.98
72689;BME280;61053;52.166;4.506;2022-08-25T11:56:50;101471.53;;;41.89;16.88
72689;BME280;61053;52.166;4.506;2022-08-25T12:02:39;101475.16;;;43.57;17.12
72689;BME280;61053;52.166;4.506;2022-08-25T12:08:05;101477.13;;;46.45;14.95
72689;BME280;61053;52.166;4.506;2022-08-25T12:11:03;101461.88;;;45.50;15.53
72689;BME280;61053;52.166;4.506;2022-08-25T12:13:46;101479.13;;;40.78;20.15
72689;BME280;61053;52.166;4.506;2022-08-25T12:27:19;101460.56;;;44.36;18.08
72689;BME280;61053;52.166;4.506;2022-08-25T12:29:51;101475.59;;;42.67;19.75
72689;BME280;61053;52.166;4.506;2022-08-25T12:32:43;101470.91;;;41.35;20.68
72689;BME280;61053;52.166;4.506;2022-08-25T12:38:14;101477.22;;;44.78;19.04
72689;BME280;61053;52.166;4.506;2022-08-25T12:41:12;101480.44;;;43.86;19.28
72689;BME280;61053;52.166;4.506;2022-08-25T12:43:46;101474.28;;;43.84;19.70
72689;BME280;61053;52.166;4.506;2022-08-25T12:54:21;101477.63;;;43.22;20.39
72689;BME280;61053;52.166;4.506;2022-08-25T12:56:59;101478.56;;;41.91;22.02
72689;BME280;61053;52.166;4.506;2022-08-25T12:59:34;101476.00;;;40.56;22.89
72689;BME280;61053;52.166;4.506;2022-08-25T13:11:59;101476.06;;;43.30;22.58
72689;BME280;61053;52.166;4.506;2022-08-25T13:14:39;101463.97;;;43.79;22.21
72689;BME280;61053;52.166;4.506;2022-08-25T13:17:07;101474.84;;;45.02;20.88
72689;BME280;61053;52.166;4.506;2022-08-25T13:19:33;101466.84;;;44.87;21.46
72689;BME280;61053;52.166;4.506;2022-08-25T13:22:02;101474.06;;;42.09;23.89
72689;BME280;61053;52.166;4.506;2022-08-25T13:24:42;101459.69;;;43.18;22.94
72689;BME280;61053;52.166;4.506;2022-08-25T13:27:20;101461.03;;;44.52;22.00
72689;BME280;61053;52.166;4.506;2022-08-25T13:29:53;101453.91;;;44.86;21.54
72689;BME280;61053;52.166;4.506;2022-08-25T13:32:27;101456.56;;;45.92;20.26
72689;BME280;61053;52.166;4.506;2022-08-25T13:35:15;101455.88;;;46.21;20.25
72689;BME280;61053;52.166;4.506;2022-08-25T13:37:49;101461.84;;;42.33;23.44
72689;BME280;61053;52.166;4.506;2022-08-25T13:42:55;101453.50;;;39.58;26.90
72689;BME280;61053;52.166;4.506;2022-08-25T13:45:27;101449.88;;;41.13;26.13
72689;BME280;61053;52.166;4.506;2022-08-25T13:47:55;101456.53;;;42.17;24.53
72689;BME280;61053;52.166;4.506;2022-08-25T13:53:22;101451.28;;;43.04;23.48
72689;BME280;61053;52.166;4.506;2022-08-25T13:55:55;101437.34;;;43.63;22.78
72689;BME280;61053;52.166;4.506;2022-08-25T13:58:28;101445.41;;;44.46;22.10
72689;BME280;61053;52.166;4.506;2022-08-25T14:01:07;101443.56;;;43.24;23.39
72689;BME280;61053;52.166;4.506;2022-08-25T14:03:40;101440.63;;;43.29;24.01
72689;BME280;61053;52.166;4.506;2022-08-25T14:08:44;101441.69;;;41.98;24.85
72689;BME280;61053;52.166;4.506;2022-08-25T14:11:29;101447.31;;;40.40;26.33
72689;BME280;61053;52.166;4.506;2022-08-25T14:14:11;101439.50;;;38.88;29.24
72689;BME280;61053;52.166;4.506;2022-08-25T14:17:05;101442.44;;;41.47;25.32
72689;BME280;61053;52.166;4.506;2022-08-25T14:19:43;101441.63;;;42.17;23.87
72689;BME280;61053;52.166;4.506;2022-08-25T14:22:12;101442.06;;;43.40;22.91
72689;BME280;61053;52.166;4.506;2022-08-25T14:24:38;101444.38;;;42.83;23.97
72689;BME280;61053;52.166;4.506;2022-08-25T14:27:04;101441.78;;;41.55;25.12
72689;BME280;61053;52.166;4.506;2022-08-25T14:29:31;101439.81;;;41.55;24.95
72689;BME280;61053;52.166;4.506;2022-08-25T14:31:58;101438.34;;;43.17;23.65
72689;BME280;61053;52.166;4.506;2022-08-25T14:34:28;101437.28;;;43.13;23.89
72689;BME280;61053;52.166;4.506;2022-08-25T14:37:01;101439.63;;;42.97;24.12
72689;BME280;61053;52.166;4.506;2022-08-25T14:39:41;101440.09;;;38.84;29.20
72689;BME280;61053;52.166;4.506;2022-08-25T14:42:07;101457.16;;;37.96;31.29
72689;BME280;61053;52.166;4.506;2022-08-25T14:44:33;101456.06;;;36.71;34.31
72689;BME280;61053;52.166;4.506;2022-08-25T14:46:59;101448.00;;;36.37;34.69
72689;BME280;61053;52.166;4.506;2022-08-25T14:49:28;101454.03;;;34.31;39.55